Terminal Aerodrome Forecast
Issued by NWS

Home | Current Version | Previous Version | Text Only | Print | Product List | Glossary On
Versions: 1 2 3 4 5 6 7 8 9 10 11 12 13 14 15 16 17 18 19 20 21
921
FTUS46 KMFR 241741
TAFRBG
TAF
KRBG 241741Z 2418/2518 00000KT P6SM SCT005 BKN050 OVC100
     FM242100 18004KT P6SM -SHRA BKN030 OVC050
     FM250200 00000KT P6SM SCT030 OVC040
     FM250600 00000KT P6SM OVC020
     FM251300 00000KT 1SM BR OVC005=

USA.gov is the U.S. government's official web portal to all federal, state and local government web resources and services.